In Rescue
 
Open Full Screen Window  High Contrast Mode
December 15, 2019 7:42 PM EST
Weather Information
Wind Direction
  ---
Wind Speed
  00 kt (0 mph)
Wind Gust
  00 kt (0 mph)
Altimeter
30.15 in
Visibility
10 SM
Temperature
-01° C
30° F
Dewpoint
-04° C
25° F
Humidity
80%
1hr Rain Fall
00.00 in.
24hr Rain Fall
00.00 in.
Sky Condition
Overcast @ 8,000 ft
VFR

METAR KDLZ 160042Z AUTO 00000KT 10SM OVC080 M01/M04 A3015 RMK AO2

FAA Disclaimer: The data displayed is for advisory purposes only and is not to be used for flight planning or operations.